Time;durP1;ratioP1;P1;durP2;ratioP2;P2;SDS_P1;SDS_P2;PMS_P1;PMS_P2;Temp;Humidity;BMP_temperature;BMP_pressure;BME280_temperature;BME280_humidity;BME280_pressure;Samples;Min_cycle;Max_cycle;Signal;HPM_P1;HPM_P2
2023/09/06 00:01:34;;;;;;;13.57;12.18;;;460.80;2380.80;;;;;;5022942;28;20040;-60
2023/09/06 00:03:59;;;;;;;18.42;12.35;;;460.80;2380.80;;;;;;5026362;28;20021;-61
2023/09/06 00:06:25;;;;;;;15.77;12.82;;;436.10;2355.20;;;;;;5029679;28;20025;-60
2023/09/06 00:08:51;;;;;;;17.42;13.23;;;436.10;2355.20;;;;;;5011948;28;20369;-61
2023/09/06 00:11:17;;;;;;;13.27;11.80;;;436.00;2355.20;;;;;;5020646;28;20059;-61
2023/09/06 00:13:43;;;;;;;14.30;12.90;;;436.10;2355.20;;;;;;5016123;28;20118;-60
2023/09/06 00:16:08;;;;;;;16.08;13.30;;;436.10;2355.20;;;;;;5018114;28;20033;-60
2023/09/06 00:18:35;;;;;;;14.32;12.15;;;436.10;2355.20;;;;;;5027467;28;20028;-61
2023/09/06 00:21:01;;;;;;;13.43;12.02;;;436.10;2355.20;;;;;;5029437;28;20033;-61
2023/09/06 00:23:26;;;;;;;12.13;10.93;;;436.10;2355.20;;;;;;5028729;28;20018;-61
2023/09/06 00:25:53;;;;;;;14.77;11.10;;;436.10;2355.20;;;;;;5029108;28;20029;-60
2023/09/06 00:28:19;;;;;;;11.88;10.63;;;460.80;2380.80;;;;;;5028770;28;20404;-61
2023/09/06 00:30:45;;;;;;;11.63;10.43;;;436.10;2355.20;;;;;;5029113;28;20040;-61
2023/09/06 00:33:13;;;;;;;14.57;12.65;;;460.80;2380.80;;;;;;5028935;28;20029;-61
2023/09/06 00:35:39;;;;;;;12.85;11.55;;;460.80;2380.80;;;;;;5028849;28;20352;-61
2023/09/06 00:38:06;;;;;;;14.18;11.45;;;460.80;2380.80;;;;;;5028719;28;20014;-61
2023/09/06 00:40:36;;;;;;;14.20;12.80;;;460.80;2380.80;;;;;;5029170;28;20033;-60
2023/09/06 00:43:03;;;;;;;13.25;11.93;;;436.10;2355.20;;;;;;5028699;28;20430;-59
2023/09/06 00:45:36;;;;;;;17.98;11.23;;;436.00;2355.20;;;;;;5028435;28;20056;-59
2023/09/06 00:48:04;;;;;;;11.65;10.43;;;436.00;2355.20;;;;;;5028692;28;20037;-61
2023/09/06 00:50:29;;;;;;;12.20;11.10;;;435.90;2355.20;;;;;;5028094;28;20029;-60
2023/09/06 00:52:56;;;;;;;12.60;11.25;;;436.00;2355.20;;;;;;5028723;28;20029;-61
2023/09/06 00:55:22;;;;;;;12.63;10.50;;;435.90;2355.20;;;;;;5028393;28;20025;-60
2023/09/06 00:57:48;;;;;;;13.23;11.23;;;435.90;2355.20;;;;;;5028663;28;20025;-61
2023/09/06 01:00:17;;;;;;;12.82;11.52;;;436.00;2355.20;;;;;;5028669;28;20029;-61
2023/09/06 01:02:44;;;;;;;13.43;11.75;;;435.90;2355.20;;;;;;5028622;28;20353;-60
2023/09/06 01:05:10;;;;;;;12.88;11.68;;;435.90;2355.20;;;;;;5028459;28;20096;-62
2023/09/06 01:07:38;;;;;;;13.88;12.57;;;436.00;2355.20;;;;;;5028252;28;20080;-59
2023/09/06 01:10:04;;;;;;;14.13;12.63;;;435.70;2355.20;;;;;;5028352;28;20037;-60
2023/09/06 01:12:30;;;;;;;14.20;11.98;;;435.70;2355.20;;;;;;5028342;28;20033;-59
2023/09/06 01:14:56;;;;;;;13.35;11.98;;;435.70;2355.20;;;;;;5028130;28;20490;-60
2023/09/06 01:17:25;;;;;;;11.85;10.65;;;435.70;2355.20;;;;;;5028688;28;20426;-60
2023/09/06 01:20:36;;;;;;;14.55;11.32;;;435.70;2355.20;;;;;;5028020;28;20109;-60
2023/09/06 01:23:20;;;;;;;11.70;10.45;;;435.60;2355.20;;;;;;5046023;28;20025;-60
2023/09/06 01:25:46;;;;;;;20.13;12.00;;;435.70;2355.20;;;;;;5045782;28;20024;-60
2023/09/06 01:28:12;;;;;;;12.20;10.65;;;435.60;2355.20;;;;;;5045902;28;20208;-60
2023/09/06 01:30:38;;;;;;;14.88;11.02;;;435.90;2355.20;;;;;;5045858;28;20116;-60
2023/09/06 01:33:04;;;;;;;11.73;10.63;;;435.80;2355.20;;;;;;5045938;28;20087;-60
2023/09/06 01:35:29;;;;;;;14.32;11.75;;;435.90;2355.20;;;;;;5045613;28;20025;-60
2023/09/06 01:37:56;;;;;;;14.05;10.88;;;435.90;2355.20;;;;;;5047958;28;20488;-60
2023/09/06 01:40:26;;;;;;;12.27;10.73;;;435.90;2355.20;;;;;;5049799;28;20020;-60
2023/09/06 01:42:52;;;;;;;14.02;10.85;;;435.90;2355.20;;;;;;5049722;28;20033;-58
2023/09/06 01:45:17;;;;;;;13.25;11.95;;;435.90;2355.20;;;;;;5049369;28;20514;-61
2023/09/06 01:47:45;;;;;;;13.27;11.88;;;436.10;2355.20;;;;;;5049749;28;20028;-61
2023/09/06 01:50:11;;;;;;;15.20;11.07;;;436.00;2355.20;;;;;;5049509;28;20037;-60
2023/09/06 01:52:39;;;;;;;13.05;11.75;;;436.00;2355.20;;;;;;5049455;28;20052;-61
2023/09/06 01:55:09;;;;;;;13.68;11.23;;;436.10;2355.20;;;;;;5049498;28;20052;-60
2023/09/06 01:57:35;;;;;;;12.45;11.23;;;460.80;2380.80;;;;;;5026482;28;20029;-62
2023/09/06 02:00:16;;;;;;;12.27;11.07;;;460.80;2380.80;;;;;;5032236;28;20455;-61
2023/09/06 02:02:41;;;;;;;13.18;10.93;;;460.80;2380.80;;;;;;5031946;28;20083;-60
2023/09/06 02:05:07;;;;;;;11.00;9.85;;;460.80;2380.80;;;;;;5031691;28;20021;-60
2023/09/06 02:07:33;;;;;;;11.73;10.27;;;460.80;2380.80;;;;;;5031440;28;20037;-60
2023/09/06 02:09:59;;;;;;;14.20;11.25;;;461.00;2380.80;;;;;;5031719;28;20109;-61
2023/09/06 02:12:24;;;;;;;12.70;11.23;;;461.10;2380.80;;;;;;5031381;28;20498;-60
2023/09/06 02:14:52;;;;;;;12.20;10.98;;;461.10;2380.80;;;;;;5031624;28;20033;-61
2023/09/06 02:17:20;;;;;;;11.38;9.70;;;461.00;2380.80;;;;;;5031469;28;20068;-60
2023/09/06 02:19:45;;;;;;;11.45;10.35;;;460.90;2380.80;;;;;;5031592;28;20501;-61
2023/09/06 02:22:11;;;;;;;11.63;10.15;;;460.90;2380.80;;;;;;5016995;28;20044;-61
2023/09/06 02:24:39;;;;;;;11.63;9.85;;;460.90;2380.80;;;;;;5031449;28;20022;-61
2023/09/06 02:27:05;;;;;;;11.23;10.20;;;461.00;2380.80;;;;;;5031631;28;20131;-61
2023/09/06 02:29:31;;;;;;;14.43;10.75;;;461.10;2380.80;;;;;;5029695;28;20133;-61
2023/09/06 02:31:57;;;;;;;12.00;10.82;;;461.10;2380.80;;;;;;5031692;28;20569;-61
2023/09/06 02:34:22;;;;;;;14.25;10.15;;;460.90;2380.80;;;;;;5031218;28;20021;-60
2023/09/06 02:36:48;;;;;;;11.40;10.20;;;460.80;2380.80;;;;;;5031204;28;20031;-61
2023/09/06 02:39:14;;;;;;;11.48;10.18;;;436.10;2355.20;;;;;;5031299;28;20076;-60
2023/09/06 02:41:39;;;;;;;11.48;10.38;;;436.00;2355.20;;;;;;5031042;28;20033;-61
2023/09/06 02:44:05;;;;;;;10.50;9.40;;;436.00;2355.20;;;;;;5017791;28;20503;-61
2023/09/06 02:46:33;;;;;;;15.38;11.13;;;436.00;2355.20;;;;;;5030700;28;20500;-61
2023/09/06 02:49:11;;;;;;;10.93;9.52;;;435.90;2355.20;;;;;;5030668;28;20105;-61
2023/09/06 02:51:38;;;;;;;12.88;11.63;;;435.90;2355.20;;;;;;5030479;28;20039;-61
2023/09/06 02:54:03;;;;;;;12.60;11.40;;;435.80;2355.20;;;;;;5030768;28;20021;-60
2023/09/06 02:56:29;;;;;;;20.02;12.60;;;435.60;2355.20;;;;;;5030979;28;20052;-61
2023/09/06 02:58:54;;;;;;;12.52;11.32;;;435.50;2355.20;;;;;;5030995;28;20032;-62
2023/09/06 03:01:20;;;;;;;12.63;10.45;;;435.60;2355.20;;;;;;5031029;28;20029;-61
2023/09/06 03:03:48;;;;;;;12.00;10.80;;;435.50;2355.20;;;;;;5030548;28;20072;-61
2023/09/06 03:06:18;;;;;;;11.80;10.55;;;435.60;2355.20;;;;;;5030779;28;20032;-61
2023/09/06 03:08:45;;;;;;;13.77;12.32;;;435.40;2355.20;;;;;;5028761;28;20079;-60
2023/09/06 03:11:14;;;;;;;13.90;11.15;;;435.40;2355.20;;;;;;5019679;28;20404;-60
2023/09/06 03:13:41;;;;;;;12.30;10.95;;;435.40;2355.20;;;;;;5030102;28;20034;-60
2023/09/06 03:16:07;;;;;;;13.38;12.02;;;435.40;2355.20;;;;;;5030628;28;20033;-60
2023/09/06 03:18:33;;;;;;;13.52;11.27;;;435.40;2355.20;;;;;;5029982;28;20606;-60
2023/09/06 03:21:04;;;;;;;12.88;11.32;;;435.30;2355.20;;;;;;5030202;28;20025;-60
2023/09/06 03:23:32;;;;;;;13.43;12.02;;;435.30;2355.20;;;;;;5016972;28;20033;-59
2023/09/06 03:25:58;;;;;;;11.52;10.43;;;435.30;2355.20;;;;;;5030023;28;20028;-60
2023/09/06 03:28:28;;;;;;;12.13;10.75;;;435.30;2355.20;;;;;;5029939;28;20498;-60
2023/09/06 03:30:58;;;;;;;13.88;10.90;;;435.20;2355.20;;;;;;5030074;28;20384;-61
2023/09/06 03:33:25;;;;;;;13.40;11.90;;;435.20;2355.20;;;;;;5029960;28;20154;-60
2023/09/06 03:35:51;;;;;;;15.38;11.85;;;435.20;2355.20;;;;;;5030021;28;20464;-60
2023/09/06 03:38:17;;;;;;;20.30;11.45;;;435.20;2355.20;;;;;;5029862;28;20025;-62
2023/09/06 03:40:44;;;;;;;15.15;11.05;;;410.50;2355.20;;;;;;5030274;28;20067;-60
2023/09/06 03:43:19;;;;;;;18.80;11.77;;;410.50;2355.20;;;;;;5029491;28;20034;-61
2023/09/06 03:45:50;;;;;;;14.38;12.85;;;410.50;2355.20;;;;;;5030170;28;20111;-60
2023/09/06 03:48:22;;;;;;;13.23;11.82;;;410.40;2355.20;;;;;;5029726;28;20026;-61
2023/09/06 03:50:51;;;;;;;15.60;13.07;;;410.40;2355.20;;;;;;5029641;28;20185;-60
2023/09/06 03:53:17;;;;;;;11.93;10.73;;;410.40;2355.20;;;;;;5029800;28;20048;-60
2023/09/06 03:55:46;;;;;;;15.15;11.07;;;410.40;2355.20;;;;;;5029757;28;20017;-61
2023/09/06 03:58:12;;;;;;;12.32;11.13;;;410.40;2355.20;;;;;;5029972;28;20396;-60
2023/09/06 04:00:43;;;;;;;12.55;11.30;;;410.40;2355.20;;;;;;5028932;28;20367;-61
2023/09/06 04:03:09;;;;;;;12.13;10.82;;;410.50;2355.20;;;;;;5029601;28;20067;-60
2023/09/06 04:05:34;;;;;;;12.32;11.02;;;410.30;2355.20;;;;;;5029430;28;20041;-59
2023/09/06 04:08:04;;;;;;;12.93;11.52;;;410.40;2355.20;;;;;;5029756;28;20434;-60
2023/09/06 04:10:37;;;;;;;12.35;10.75;;;410.40;2355.20;;;;;;5029350;28;20079;-60
2023/09/06 04:13:13;;;;;;;12.23;11.10;;;410.40;2355.20;;;;;;5029538;28;20045;-60
2023/09/06 04:15:42;;;;;;;14.68;11.00;;;410.50;2355.20;;;;;;5029337;28;20338;-60
2023/09/06 04:18:12;;;;;;;11.40;10.30;;;410.50;2355.20;;;;;;5029388;28;20422;-61
2023/09/06 04:20:39;;;;;;;12.13;10.93;;;410.50;2355.20;;;;;;5028035;28;20072;-61
2023/09/06 04:23:13;;;;;;;13.30;11.85;;;410.50;2355.20;;;;;;5029685;28;20029;-60
2023/09/06 04:25:43;;;;;;;12.88;10.40;;;435.30;2355.20;;;;;;5020391;28;20080;-61
2023/09/06 04:28:10;;;;;;;13.73;10.43;;;435.20;2355.20;;;;;;5025407;28;20084;-61
2023/09/06 04:30:37;;;;;;;12.40;10.48;;;435.30;2355.20;;;;;;5024596;28;20022;-61
2023/09/06 04:33:14;;;;;;;13.23;10.95;;;435.30;2355.20;;;;;;5021049;28;20053;-59
2023/09/06 04:35:44;;;;;;;11.95;10.80;;;435.40;2355.20;;;;;;5029230;28;20052;-60
2023/09/06 04:38:27;;;;;;;12.90;9.70;;;435.40;2355.20;;;;;;5029161;28;20071;-60
2023/09/06 04:40:53;;;;;;;13.38;11.05;;;435.50;2355.20;;;;;;5011009;28;20033;-60
2023/09/06 04:43:19;;;;;;;11.35;9.77;;;435.50;2355.20;;;;;;5009182;28;20034;-61
2023/09/06 04:45:47;;;;;;;17.83;11.48;;;435.60;2355.20;;;;;;5029058;28;20090;-61
2023/09/06 04:48:16;;;;;;;11.73;10.02;;;435.60;2355.20;;;;;;5029282;28;20151;-60
2023/09/06 04:50:43;;;;;;;14.73;10.20;;;435.70;2355.20;;;;;;5029008;28;20079;-60
2023/09/06 04:53:09;;;;;;;11.00;9.90;;;435.90;2355.20;;;;;;5027479;28;20030;-60
2023/09/06 04:55:36;;;;;;;13.07;11.02;;;435.90;2355.20;;;;;;5028962;28;20017;-60
2023/09/06 04:58:06;;;;;;;11.18;10.00;;;435.90;2355.20;;;;;;5028603;28;20036;-60
2023/09/06 05:00:36;;;;;;;10.70;9.60;;;460.80;2380.80;;;;;;5028987;28;20049;-60
2023/09/06 05:03:02;;;;;;;11.50;10.30;;;460.80;2380.80;;;;;;5028346;28;20087;-60
2023/09/06 05:05:29;;;;;;;10.80;9.70;;;461.00;2380.80;;;;;;5028196;28;20021;-60
2023/09/06 05:07:55;;;;;;;15.00;10.38;;;461.60;2380.80;;;;;;5028941;28;20030;-60
2023/09/06 05:10:20;;;;;;;11.77;10.32;;;486.40;2380.80;;;;;;5028444;28;20030;-59
2023/09/06 05:12:46;;;;;;;12.13;9.43;;;486.70;2380.80;;;;;;5028008;28;20033;-60
2023/09/06 05:15:15;;;;;;;10.82;9.15;;;487.00;2380.80;;;;;;5028548;28;20072;-59
2023/09/06 05:17:40;;;;;;;13.52;8.60;;;512.00;2380.80;;;;;;5028528;28;20064;-61
2023/09/06 05:20:29;;;;;;;9.60;7.82;;;512.10;2380.80;;;;;;5028145;28;20041;-60
2023/09/06 05:22:59;;;;;;;10.52;9.13;;;512.00;2380.80;;;;;;5028569;28;20383;-60
2023/09/06 05:25:25;;;;;;;10.00;8.98;;;512.20;2380.80;;;;;;5027555;28;20033;-61
2023/09/06 05:27:57;;;;;;;10.93;8.98;;;512.40;2380.80;;;;;;5028568;28;20022;-60
2023/09/06 05:30:22;;;;;;;10.63;8.43;;;512.60;2380.80;;;;;;5028453;28;20028;-60
2023/09/06 05:32:49;;;;;;;8.90;8.00;;;538.10;2406.40;;;;;;5028217;28;20112;-61
2023/09/06 05:35:15;;;;;;;11.20;9.15;;;538.20;2406.40;;;;;;5027831;28;20029;-60
2023/09/06 05:37:41;;;;;;;9.60;8.60;;;538.20;2406.40;;;;;;5028008;28;20444;-60
2023/09/06 05:40:08;;;;;;;10.43;9.40;;;563.80;2432.00;;;;;;5028502;28;20076;-62
2023/09/06 05:42:34;;;;;;;11.10;9.35;;;;;;;;;;5028312;28;20029;-61
2023/09/06 05:45:00;;;;;;;12.15;9.52;;;614.80;2432.00;;;;;;5028050;28;20045;-60
2023/09/06 05:47:26;;;;;;;9.43;8.52;;;614.80;2432.00;;;;;;5028255;28;20076;-60
2023/09/06 05:49:55;;;;;;;8.80;7.65;;;589.50;2432.00;;;;;;5028483;28;20029;-64
2023/09/06 05:52:22;;;;;;;10.48;8.80;;;589.60;2432.00;;;;;;5028124;28;20025;-61
2023/09/06 05:54:48;;;;;;;10.52;9.07;;;614.40;2432.00;;;;;;5028150;28;20068;-61
2023/09/06 05:57:14;;;;;;;12.07;7.95;;;589.70;2432.00;;;;;;5028275;28;20025;-61
2023/09/06 05:59:40;;;;;;;11.40;8.90;;;589.50;2432.00;;;;;;5028121;28;20064;-64
2023/09/06 06:02:07;;;;;;;9.73;8.82;;;640.50;2432.00;;;;;;5015135;28;20029;-60
2023/09/06 06:04:32;;;;;;;10.30;8.23;;;717.20;2329.60;;;;;;5028150;28;20027;-62
2023/09/06 06:06:58;;;;;;;11.73;8.35;;;768.20;2048.00;;;;;;5028356;28;20025;-60
2023/09/06 06:09:25;;;;;;;8.85;8.05;;;793.90;1971.20;;;;;;5028069;28;20084;-64
2023/09/06 06:11:54;;;;;;;11.45;8.65;;;819.30;1868.80;;;;;;5027509;28;20049;-62
2023/09/06 06:14:20;;;;;;;9.70;8.70;;;870.70;1715.20;;;;;;5028185;28;20084;-63
2023/09/06 06:16:46;;;;;;;13.88;8.95;;;871.30;1638.40;;;;;;5015047;28;20032;-61
2023/09/06 06:19:12;;;;;;;10.00;8.98;;;896.90;1587.20;;;;;;5028238;28;20104;-62
2023/09/06 06:21:39;;;;;;;8.70;7.75;;;922.50;1536.00;;;;;;5027588;28;20028;-61
2023/09/06 06:24:08;;;;;;;9.20;8.40;;;947.30;1484.80;;;;;;5030371;28;20029;-60
2023/09/06 06:26:34;;;;;;;10.48;9.43;;;947.30;1510.40;;;;;;5031656;28;20398;-61
2023/09/06 06:29:01;;;;;;;8.88;8.07;;;922.40;1510.40;;;;;;5031880;28;20021;-62
2023/09/06 06:31:27;;;;;;;10.77;9.70;;;947.90;1459.20;;;;;;5031312;28;20072;-61
2023/09/06 06:33:53;;;;;;;13.10;9.15;;;973.20;1433.60;;;;;;5031490;28;20053;-61
2023/09/06 06:36:19;;;;;;;10.23;9.00;;;998.50;1382.40;;;;;;5031228;28;20410;-61
2023/09/06 06:38:48;;;;;;;10.20;9.30;;;999.10;1356.80;;;;;;5031730;28;20437;-62
2023/09/06 06:41:20;;;;;;;11.45;9.05;;;1024.70;1305.60;;;;;;5031424;28;20025;-61
2023/09/06 06:43:47;;;;;;;10.02;8.90;;;1049.70;1305.60;;;;;;5031458;28;20090;-61
2023/09/06 06:46:32;;;;;;;11.70;10.25;;;999.10;1331.20;;;;;;5031260;28;20057;-62
2023/09/06 06:48:59;;;;;;;10.35;9.27;;;1024.30;1305.60;;;;;;5031024;28;20789;-63
2023/09/06 06:51:26;;;;;;;10.13;9.30;;;1049.60;1280.00;;;;;;5031509;28;20090;-62
2023/09/06 06:53:51;;;;;;;9.90;9.00;;;999.20;1305.60;;;;;;5031254;28;20025;-62
2023/09/06 06:56:21;;;;;;;10.30;9.50;;;998.80;1331.20;;;;;;5031321;28;20086;-62
2023/09/06 06:58:48;;;;;;;10.18;9.18;;;998.50;1331.20;;;;;;5030856;28;20037;-62
2023/09/06 07:01:14;;;;;;;11.68;10.63;;;1049.60;1280.00;;;;;;5022153;28;20022;-63
2023/09/06 07:03:40;;;;;;;11.25;10.23;;;1050.40;1228.80;;;;;;5026540;28;20021;-64
2023/09/06 07:06:07;;;;;;;12.13;10.90;;;999.00;1305.60;;;;;;5030967;28;20025;-60
2023/09/06 07:08:35;;;;;;;11.77;10.75;;;1050.00;1280.00;;;;;;5030938;28;20084;-62
2023/09/06 07:11:03;;;;;;;13.52;12.38;;;1050.40;1254.40;;;;;;5030954;28;20039;-61
2023/09/06 07:13:29;;;;;;;12.88;11.73;;;999.30;1305.60;;;;;;5030322;28;20574;-61
2023/09/06 07:15:55;;;;;;;13.65;12.35;;;998.70;1305.60;;;;;;5031009;28;20112;-61
2023/09/06 07:18:21;;;;;;;13.27;11.82;;;972.90;1356.80;;;;;;5030421;28;20033;-62
2023/09/06 07:20:47;;;;;;;13.13;11.93;;;947.80;1356.80;;;;;;5030629;28;20371;-62
2023/09/06 07:23:13;;;;;;;14.43;13.18;;;948.00;1331.20;;;;;;5030934;28;20450;-62
2023/09/06 07:25:39;;;;;;;14.07;12.70;;;1024.10;1280.00;;;;;;5030475;28;20041;-61
2023/09/06 07:28:05;;;;;;;13.82;12.48;;;973.70;1305.60;;;;;;5030578;28;20044;-62
2023/09/06 07:30:32;;;;;;;14.38;12.77;;;998.80;1305.60;;;;;;5026036;28;20022;-61
2023/09/06 07:32:58;;;;;;;13.90;12.55;;;972.90;1356.80;;;;;;5010490;28;20038;-62
2023/09/06 07:35:23;;;;;;;15.75;14.18;;;998.90;1305.60;;;;;;5009965;28;20115;-64
2023/09/06 08:12:44;;;;;;;12.95;11.80;;;998.90;1280.00;;;;;;5093039;27;20402;-66
2023/09/06 08:15:09;;;;;;;13.10;12.07;;;999.20;1254.40;;;;;;5106229;28;20378;-63
2023/09/06 08:17:35;;;;;;;13.00;11.82;;;1024.20;1228.80;;;;;;5078643;28;20043;-60
2023/09/06 08:20:01;;;;;;;12.85;11.82;;;973.60;1254.40;;;;;;5093479;28;20020;-61
2023/09/06 08:22:26;;;;;;;12.32;11.30;;;1024.20;1203.20;;;;;;5105834;28;20028;-67
2023/09/06 08:24:52;;;;;;;11.38;10.48;;;998.80;1228.80;;;;;;5106693;28;20043;-64
2023/09/06 08:27:18;;;;;;;14.25;13.18;;;998.50;1228.80;;;;;;5106200;28;20393;-62
2023/09/06 08:29:43;;;;;;;13.45;11.27;;;973.40;1228.80;;;;;;5105566;28;20047;-60
2023/09/06 08:32:09;;;;;;;12.38;11.30;;;973.00;1280.00;;;;;;5105957;28;20500;-64
2023/09/06 08:34:35;;;;;;;12.45;10.68;;;999.00;1203.20;;;;;;5105888;28;20028;-63
2023/09/06 08:37:01;;;;;;;11.55;10.43;;;998.50;1228.80;;;;;;5106142;28;20091;-60
2023/09/06 08:39:26;;;;;;;11.65;10.55;;;973.70;1228.80;;;;;;5105884;28;20020;-62
2023/09/06 08:41:55;;;;;;;11.73;10.45;;;999.30;1203.20;;;;;;5105807;28;20409;-60
2023/09/06 08:44:25;;;;;;;11.85;10.85;;;998.60;1228.80;;;;;;5106308;28;20085;-61
2023/09/06 08:46:53;;;;;;;11.73;10.75;;;948.00;1254.40;;;;;;5105485;28;20031;-65
2023/09/06 08:49:21;;;;;;;9.85;8.93;;;973.40;1228.80;;;;;;5105745;28;20350;-58
2023/09/06 08:51:48;;;;;;;9.05;8.27;;;922.40;1280.00;;;;;;5105502;28;20023;-59
2023/09/06 08:54:15;;;;;;;7.78;7.07;;;896.00;1356.80;;;;;;5105875;28;20043;-58
2023/09/06 08:56:43;;;;;;;9.68;7.65;;;870.60;1382.40;;;;;;5105203;28;20018;-60
2023/09/06 08:59:09;;;;;;;8.93;7.32;;;845.70;1433.60;;;;;;5105736;28;20034;-65
2023/09/06 09:01:37;;;;;;;8.35;7.55;;;819.40;1484.80;;;;;;5104909;28;20377;-59
2023/09/06 09:04:03;;;;;;;7.60;6.90;;;819.70;1510.40;;;;;;5105456;28;20020;-62
2023/09/06 09:06:29;;;;;;;7.97;7.18;;;794.00;1536.00;;;;;;5105007;28;20024;-59
2023/09/06 09:09:13;;;;;;;7.22;6.47;;;794.00;1536.00;;;;;;5105365;28;20111;-60
2023/09/06 09:11:43;;;;;;;10.25;7.10;;;768.70;1536.00;;;;;;5103103;28;20043;-63
2023/09/06 09:14:21;;;;;;;8.20;6.78;;;768.90;1561.60;;;;;;5091604;28;20024;-59
2023/09/06 09:16:57;;;;;;;10.45;6.22;;;;;;;;;;5091603;28;20438;-66
2023/09/06 09:19:24;;;;;;;12.25;7.13;;;;;;;;;;5091373;28;20034;-64
2023/09/06 09:21:51;;;;;;;8.10;6.85;;;;;;;;;;5091723;28;20032;-59
2023/09/06 09:24:27;;;;;;;7.47;6.47;;;768.50;1561.60;;;;;;5091384;28;20458;-65
2023/09/06 09:26:54;;;;;;;8.80;6.35;;;768.10;1561.60;;;;;;5078636;28;20036;-60
2023/09/06 09:29:20;;;;;;;11.35;7.13;;;768.30;1587.20;;;;;;5091032;28;20024;-65
2023/09/06 09:31:46;;;;;;;10.57;7.05;;;743.30;1612.80;;;;;;5091314;28;20021;-60
2023/09/06 09:34:14;;;;;;;10.32;7.40;;;768.10;1587.20;;;;;;5091205;28;20028;-62
2023/09/06 09:36:40;;;;;;;9.90;7.18;;;768.30;1612.80;;;;;;5091215;28;20020;-64
2023/09/06 09:39:13;;;;;;;7.72;6.28;;;768.30;1612.80;;;;;;5090994;28;20016;-60
2023/09/06 09:41:44;;;;;;;9.98;7.22;;;743.00;1612.80;;;;;;5090758;28;20032;-60
2023/09/06 09:44:14;;;;;;;7.78;6.80;;;743.30;1612.80;;;;;;5090845;28;20027;-60
2023/09/06 09:46:43;;;;;;;9.25;7.13;;;743.00;1612.80;;;;;;5090573;28;20025;-59
2023/09/06 09:49:10;;;;;;;9.60;6.30;;;742.90;1638.40;;;;;;5090752;28;20024;-60
2023/09/06 09:51:37;;;;;;;8.30;6.10;;;743.30;1612.80;;;;;;5091109;28;20020;-59
2023/09/06 09:54:07;;;;;;;13.35;6.03;;;743.10;1612.80;;;;;;5091028;28;20426;-64
2023/09/06 09:56:34;;;;;;;9.65;6.47;;;743.00;1638.40;;;;;;5091237;28;20020;-60
2023/09/06 09:59:04;;;;;;;7.40;5.90;;;743.10;1664.00;;;;;;5090107;28;20057;-64
2023/09/06 10:01:31;;;;;;;8.25;6.75;;;743.30;1638.40;;;;;;5090329;28;20064;-59
2023/09/06 10:03:58;;;;;;;7.30;6.40;;;742.50;1638.40;;;;;;5090040;28;20016;-61
2023/09/06 10:06:31;;;;;;;7.72;6.93;;;742.60;1664.00;;;;;;5091087;28;20127;-64
2023/09/06 10:08:59;;;;;;;8.55;6.82;;;717.40;1664.00;;;;;;5090557;28;20399;-60
2023/09/06 10:11:26;;;;;;;8.90;6.38;;;717.60;1664.00;;;;;;5090512;28;20044;-64
2023/09/06 10:13:52;;;;;;;12.68;6.53;;;742.60;1664.00;;;;;;5090866;28;20043;-59
2023/09/06 10:16:20;;;;;;;6.55;5.30;;;742.40;1664.00;;;;;;5090448;28;20477;-59
2023/09/06 10:18:46;;;;;;;10.38;6.50;;;742.40;1664.00;;;;;;5090348;28;20071;-61
2023/09/06 10:21:13;;;;;;;8.65;6.55;;;717.60;1664.00;;;;;;5090195;28;20035;-60
2023/09/06 10:23:42;;;;;;;6.57;5.80;;;717.50;1664.00;;;;;;5089190;28;20091;-62
2023/09/06 10:26:09;;;;;;;6.68;5.68;;;717.60;1689.60;;;;;;5089381;28;20043;-58
2023/09/06 10:28:35;;;;;;;7.80;5.38;;;717.50;1664.00;;;;;;5090274;28;20103;-61
2023/09/06 10:31:08;;;;;;;8.13;6.00;;;717.60;1664.00;;;;;;5076928;28;20141;-61
2023/09/06 10:33:36;;;;;;;8.93;5.55;;;717.40;1638.40;;;;;;5090245;28;20025;-59
2023/09/06 10:36:08;;;;;;;8.23;6.07;;;717.60;1638.40;;;;;;5089765;28;20032;-64
2023/09/06 10:38:58;;;;;;;12.75;6.43;;;742.40;1689.60;;;;;;5090357;28;20020;-63
2023/09/06 10:41:27;;;;;;;8.23;6.00;;;717.70;1638.40;;;;;;5089791;28;20043;-59
2023/09/06 10:44:09;;;;;;;7.55;5.20;;;717.30;1664.00;;;;;;5090554;28;20059;-63
2023/09/06 10:46:36;;;;;;;9.65;6.20;;;717.00;1664.00;;;;;;5089842;28;20461;-60
2023/09/06 10:49:22;;;;;;;6.93;6.10;;;717.40;1638.40;;;;;;5089899;28;20036;-59
2023/09/06 10:52:06;;;;;;;6.45;5.35;;;717.10;1664.00;;;;;;5089808;28;20052;-59
2023/09/06 10:54:41;;;;;;;8.07;7.22;;;717.10;1664.00;;;;;;5090234;28;20077;-63
2023/09/06 10:57:10;;;;;;;8.98;6.40;;;717.40;1638.40;;;;;;5089597;28;20043;-59
2023/09/06 10:59:38;;;;;;;7.30;5.85;;;717.50;1638.40;;;;;;5089882;28;20020;-63
2023/09/06 11:02:08;;;;;;;11.18;9.25;;;717.40;1638.40;;;;;;5089739;28;20505;-59
2023/09/06 11:04:33;;;;;;;8.25;5.25;;;717.20;1638.40;;;;;;5089665;28;20072;-60
2023/09/06 11:07:04;;;;;;;7.65;5.88;;;717.40;1638.40;;;;;;5088675;28;20055;-61
2023/09/06 11:09:30;;;;;;;11.68;5.38;;;717.40;1638.40;;;;;;5089591;28;20074;-59
2023/09/06 11:11:57;;;;;;;6.38;5.25;;;717.20;1664.00;;;;;;5089426;28;20056;-63
2023/09/06 11:14:28;;;;;;;7.88;6.13;;;717.40;1612.80;;;;;;5089742;28;20106;-63
2023/09/06 11:16:53;;;;;;;7.00;5.82;;;717.50;1612.80;;;;;;5089720;28;20024;-63
2023/09/06 11:19:31;;;;;;;7.70;5.97;;;717.70;1612.80;;;;;;5089389;28;20074;-60
2023/09/06 11:22:08;;;;;;;10.13;6.65;;;717.60;1561.60;;;;;;5089466;28;20040;-64
2023/09/06 11:24:37;;;;;;;8.07;5.65;;;717.70;1587.20;;;;;;5063204;28;20720;-61
2023/09/06 11:27:29;;;;;;;6.72;4.97;;;717.50;1612.80;;;;;;5089756;28;20059;-61
2023/09/06 11:30:15;;;;;;;7.00;5.50;;;717.40;1587.20;;;;;;5089970;28;20031;-62
2023/09/06 11:32:44;;;;;;;7.15;5.70;;;717.50;1587.20;;;;;;5089390;28;20063;-62
2023/09/06 11:35:10;;;;;;;6.07;5.47;;;717.40;1612.80;;;;;;5089362;28;20446;-63
2023/09/06 11:37:39;;;;;;;8.48;6.07;;;717.10;1612.80;;;;;;5089567;28;20028;-61
2023/09/06 11:40:15;;;;;;;8.27;6.13;;;717.40;1664.00;;;;;;5088852;28;20749;-61
2023/09/06 11:42:48;;;;;;;8.65;5.68;;;742.40;1664.00;;;;;;5089563;28;20036;-61
2023/09/06 11:45:17;;;;;;;7.65;6.30;;;717.70;1638.40;;;;;;5075659;28;20424;-61
2023/09/06 11:47:48;;;;;;;7.75;5.85;;;742.50;1638.40;;;;;;5089182;28;20031;-61
2023/09/06 11:50:21;;;;;;;7.60;5.43;;;742.60;1612.80;;;;;;5089248;28;20565;-61
2023/09/06 11:52:53;;;;;;;7.95;6.18;;;742.60;1612.80;;;;;;5039973;28;20440;-61
2023/09/06 11:55:21;;;;;;;11.53;5.90;;;717.70;1612.80;;;;;;5071080;28;20482;-61
2023/09/06 11:57:53;;;;;;;6.47;5.82;;;717.60;1587.20;;;;;;5088996;28;20048;-60
2023/09/06 12:00:43;;;;;;;5.97;5.38;;;717.70;1587.20;;;;;;5089169;28;20028;-60
2023/09/06 12:03:10;;;;;;;6.72;6.03;;;717.40;1612.80;;;;;;5088786;28;20481;-60
2023/09/06 12:05:38;;;;;;;6.07;5.35;;;717.30;1638.40;;;;;;5087960;28;20040;-62
2023/09/06 12:08:05;;;;;;;8.32;5.57;;;717.70;1612.80;;;;;;5089359;28;20031;-61
2023/09/06 12:10:34;;;;;;;7.13;5.25;;;717.70;1612.80;;;;;;5088683;28;20033;-61
2023/09/06 12:13:00;;;;;;;9.60;5.88;;;717.60;1587.20;;;;;;5088844;28;20103;-61
2023/09/06 12:15:28;;;;;;;6.63;5.50;;;717.60;1587.20;;;;;;5088917;28;20031;-61
2023/09/06 12:17:56;;;;;;;7.68;5.53;;;717.50;1587.20;;;;;;5088714;28;20041;-62
2023/09/06 12:20:25;;;;;;;6.78;5.75;;;717.70;1587.20;;;;;;5088879;28;20397;-62
2023/09/06 12:22:52;;;;;;;5.72;4.95;;;742.40;1612.80;;;;;;5079954;28;20119;-60
2023/09/06 12:25:19;;;;;;;8.05;5.43;;;717.70;1561.60;;;;;;5078702;28;20127;-62
2023/09/06 12:27:47;;;;;;;7.40;5.10;;;717.40;1587.20;;;;;;5085840;28;20522;-60
2023/09/06 12:30:16;;;;;;;6.05;5.45;;;742.40;1612.80;;;;;;5089014;28;20020;-61
2023/09/06 12:32:42;;;;;;;9.73;6.43;;;717.70;1536.00;;;;;;5088628;28;20024;-61
2023/09/06 12:35:09;;;;;;;7.13;5.15;;;717.70;1561.60;;;;;;5089119;28;20024;-62
2023/09/06 12:37:39;;;;;;;7.90;5.32;;;717.50;1561.60;;;;;;5087820;28;20142;-60
2023/09/06 12:40:10;;;;;;;5.75;4.85;;;717.30;1561.60;;;;;;5089149;28;20490;-62
2023/09/06 12:42:47;;;;;;;8.15;5.53;;;717.50;1587.20;;;;;;5088480;28;20033;-60
2023/09/06 12:45:25;;;;;;;5.88;5.22;;;717.60;1561.60;;;;;;5089073;28;20417;-58
2023/09/06 12:47:51;;;;;;;8.80;5.63;;;717.50;1561.60;;;;;;5089971;28;20464;-61
2023/09/06 12:50:17;;;;;;;5.80;5.18;;;717.50;1561.60;;;;;;5092384;28;20102;-59